createdAt,value
2022-12-06T00:01:53.643Z,3.70
2022-12-06T00:04:22.686Z,3.70
2022-12-06T00:06:52.568Z,3.70
2022-12-06T00:09:26.138Z,3.70
2022-12-06T00:11:56.422Z,3.80
2022-12-06T00:14:26.389Z,3.80
2022-12-06T00:16:55.512Z,3.80
2022-12-06T00:19:25.762Z,3.70
2022-12-06T00:21:54.761Z,3.70
2022-12-06T00:24:24.307Z,3.80
2022-12-06T00:26:53.211Z,3.80
2022-12-06T00:29:24.711Z,3.80
2022-12-06T00:31:53.723Z,3.80
2022-12-06T00:34:23.006Z,3.90
2022-12-06T00:36:52.217Z,3.80
2022-12-06T00:39:21.718Z,3.90
2022-12-06T00:41:50.514Z,4.00
2022-12-06T00:44:19.580Z,3.80
2022-12-06T00:46:50.147Z,3.80
2022-12-06T00:49:21.002Z,3.80
2022-12-06T00:51:50.487Z,4.00
2022-12-06T00:54:19.631Z,3.80
2022-12-06T00:56:48.746Z,3.80
2022-12-06T00:59:18.036Z,3.80
2022-12-06T01:01:46.743Z,3.80
2022-12-06T01:04:16.943Z,4.00
2022-12-06T01:06:45.880Z,3.90
2022-12-06T01:09:15.079Z,3.90
2022-12-06T01:11:44.126Z,3.90
2022-12-06T01:14:12.892Z,3.90
2022-12-06T01:16:42.087Z,3.80
2022-12-06T01:19:13.041Z,3.90
2022-12-06T01:21:44.698Z,3.90
2022-12-06T01:24:14.125Z,3.90
2022-12-06T01:26:43.155Z,3.80
2022-12-06T01:29:12.897Z,3.90
2022-12-06T01:31:41.535Z,3.90
2022-12-06T01:34:17.454Z,3.90
2022-12-06T01:36:48.322Z,3.90
2022-12-06T01:39:17.186Z,3.90
2022-12-06T01:41:45.914Z,3.90
2022-12-06T01:44:43.951Z,3.90
2022-12-06T01:47:16.525Z,3.90
2022-12-06T01:49:49.318Z,4.50
2022-12-06T01:52:20.603Z,4.00
2022-12-06T01:54:49.984Z,4.00
2022-12-06T01:57:19.947Z,4.00
2022-12-06T01:59:49.347Z,4.10
2022-12-06T02:02:18.395Z,4.00
2022-12-06T02:04:47.674Z,4.10
2022-12-06T02:07:18.959Z,4.10
2022-12-06T02:09:50.757Z,4.10
2022-12-06T02:12:19.715Z,4.10
2022-12-06T02:14:50.669Z,4.00
2022-12-06T02:17:29.766Z,4.00
2022-12-06T02:20:15.815Z,4.10
2022-12-06T02:23:17.512Z,4.10
2022-12-06T02:26:22.215Z,4.10
2022-12-06T02:29:26.752Z,4.10
2022-12-06T02:32:00.734Z,4.10
2022-12-06T02:34:37.682Z,4.20
2022-12-06T02:37:13.506Z,4.10
2022-12-06T02:39:50.315Z,4.20
2022-12-06T02:42:22.183Z,4.10
2022-12-06T02:44:54.808Z,4.10
2022-12-06T02:47:31.604Z,4.10
2022-12-06T02:50:02.753Z,4.10
2022-12-06T02:52:33.252Z,4.20
2022-12-06T02:55:04.703Z,4.20
2022-12-06T02:57:41.186Z,4.10
2022-12-06T03:00:34.755Z,4.20
2022-12-06T03:03:16.962Z,4.20
2022-12-06T03:06:05.066Z,4.30
2022-12-06T03:08:42.678Z,4.20
2022-12-06T03:11:12.314Z,4.20
2022-12-06T03:13:51.750Z,4.20
2022-12-06T03:16:37.410Z,4.20
2022-12-06T03:19:21.073Z,4.20
2022-12-06T03:21:55.990Z,4.20
2022-12-06T03:24:27.461Z,4.20
2022-12-06T03:26:59.350Z,4.20
2022-12-06T03:29:32.081Z,4.20
2022-12-06T03:32:04.336Z,4.20
2022-12-06T03:34:40.160Z,4.20
2022-12-06T03:37:13.673Z,4.30
2022-12-06T03:39:48.442Z,4.20
2022-12-06T03:42:19.522Z,4.20
2022-12-06T03:44:49.733Z,4.10
2022-12-06T03:47:22.937Z,4.10
2022-12-06T03:49:58.600Z,4.10
2022-12-06T03:52:31.149Z,4.10
2022-12-06T03:55:00.260Z,4.10
2022-12-06T03:57:31.336Z,4.10
2022-12-06T04:00:00.662Z,4.10
2022-12-06T04:02:29.625Z,4.20
2022-12-06T04:05:00.291Z,4.30
2022-12-06T04:07:29.311Z,4.20
2022-12-06T04:10:03.378Z,4.20
2022-12-06T04:12:51.302Z,4.20
2022-12-06T04:15:22.330Z,4.20
2022-12-06T04:18:09.319Z,4.20
2022-12-06T04:21:04.706Z,4.20
2022-12-06T04:23:36.483Z,4.30
2022-12-06T04:26:06.692Z,4.20
2022-12-06T04:28:55.606Z,4.30
2022-12-06T04:31:42.697Z,4.30
2022-12-06T04:34:32.481Z,4.10
2022-12-06T04:37:21.844Z,4.10
2022-12-06T04:39:50.732Z,4.10
2022-12-06T04:42:37.659Z,4.10
2022-12-06T04:45:07.846Z,4.10
2022-12-06T04:47:36.859Z,4.20
2022-12-06T04:50:06.525Z,4.20
2022-12-06T04:52:37.074Z,4.10
2022-12-06T04:55:08.284Z,4.10
2022-12-06T04:57:37.392Z,4.20
2022-12-06T05:00:07.804Z,4.30
2022-12-06T05:02:38.522Z,4.30
2022-12-06T05:05:08.569Z,4.30
2022-12-06T05:07:38.848Z,4.30
2022-12-06T05:10:09.569Z,4.10
2022-12-06T05:12:38.685Z,4.20
2022-12-06T05:15:08.437Z,4.20
2022-12-06T05:17:37.220Z,4.10
2022-12-06T05:20:07.327Z,4.10
2022-12-06T05:22:36.145Z,4.20
2022-12-06T05:25:06.906Z,4.10
2022-12-06T05:27:36.417Z,4.10
2022-12-06T05:30:06.414Z,4.20
2022-12-06T05:32:35.403Z,4.10
2022-12-06T05:35:08.165Z,4.10
2022-12-06T05:37:37.532Z,4.10
2022-12-06T05:40:09.916Z,4.10
2022-12-06T05:42:41.104Z,4.10
2022-12-06T05:45:11.329Z,4.20
2022-12-06T05:47:40.624Z,4.10
2022-12-06T05:50:10.891Z,4.10
2022-12-06T05:52:39.913Z,5.10
2022-12-06T05:55:10.392Z,4.10
2022-12-06T05:57:42.513Z,4.20
2022-12-06T06:00:16.629Z,4.10
2022-12-06T06:02:46.121Z,4.10
2022-12-06T06:05:15.750Z,4.10
2022-12-06T06:07:44.749Z,4.10
2022-12-06T06:10:15.930Z,4.00
2022-12-06T06:12:45.734Z,4.00
2022-12-06T06:15:15.982Z,3.90
2022-12-06T06:17:44.748Z,3.90
2022-12-06T06:20:14.985Z,4.00
2022-12-06T06:22:43.705Z,4.00
2022-12-06T06:25:12.520Z,4.00
2022-12-06T06:27:42.833Z,4.10
2022-12-06T06:30:13.995Z,4.10
2022-12-06T06:32:43.214Z,4.10
2022-12-06T06:35:12.055Z,4.00
2022-12-06T06:37:41.060Z,4.10
2022-12-06T06:40:11.594Z,4.70
2022-12-06T06:42:40.583Z,4.20
2022-12-06T06:45:12.313Z,4.20
2022-12-06T06:47:41.422Z,4.10
2022-12-06T06:50:11.169Z,4.20
2022-12-06T06:52:41.250Z,4.10
2022-12-06T06:55:10.549Z,4.10
2022-12-06T06:57:41.067Z,4.10
2022-12-06T07:00:12.894Z,4.10
2022-12-06T07:02:41.641Z,4.10
2022-12-06T07:05:10.701Z,4.10
2022-12-06T07:07:39.594Z,4.10
2022-12-06T07:10:09.641Z,4.10
2022-12-06T07:12:38.359Z,4.10
2022-12-06T07:15:08.662Z,4.10
2022-12-06T07:17:38.928Z,4.10
2022-12-06T07:20:09.401Z,4.10
2022-12-06T07:22:38.366Z,4.20
2022-12-06T07:25:07.810Z,4.20
2022-12-06T07:27:37.102Z,4.20
2022-12-06T07:30:06.917Z,4.20
2022-12-06T07:32:39.406Z,4.20
2022-12-06T07:35:10.901Z,4.20
2022-12-06T07:37:42.928Z,4.10
2022-12-06T07:40:13.714Z,4.10
2022-12-06T07:43:00.166Z,4.10
2022-12-06T07:45:29.185Z,4.10
2022-12-06T07:47:58.147Z,4.10
2022-12-06T07:50:28.411Z,4.30
2022-12-06T07:52:57.604Z,4.10
2022-12-06T07:55:26.576Z,4.10
2022-12-06T07:57:55.699Z,4.10
2022-12-06T08:00:24.825Z,4.20
2022-12-06T08:02:53.850Z,4.20
2022-12-06T08:05:22.714Z,4.20
2022-12-06T08:07:53.543Z,4.10
2022-12-06T08:10:22.426Z,4.20
2022-12-06T08:12:51.165Z,4.20
2022-12-06T08:15:19.833Z,4.20
2022-12-06T08:17:48.569Z,4.30
2022-12-06T08:20:17.491Z,4.20
2022-12-06T08:22:46.280Z,4.20
2022-12-06T08:25:16.839Z,4.30
2022-12-06T08:27:45.776Z,4.20
2022-12-06T08:30:15.191Z,4.30
2022-12-06T08:32:43.922Z,4.30
2022-12-06T08:35:12.619Z,4.30
2022-12-06T08:37:41.462Z,4.30
2022-12-06T08:40:11.039Z,4.20
2022-12-06T08:42:42.048Z,4.20
2022-12-06T08:45:11.015Z,4.30
2022-12-06T08:47:39.697Z,4.30
2022-12-06T08:50:09.748Z,4.40
2022-12-06T08:52:38.604Z,4.30
2022-12-06T08:55:08.577Z,4.30
2022-12-06T08:57:37.602Z,4.40
2022-12-06T09:00:09.476Z,4.40
2022-12-06T09:02:40.138Z,4.40
2022-12-06T09:05:09.752Z,4.60
2022-12-06T09:07:38.669Z,4.40
2022-12-06T09:10:10.089Z,4.40
2022-12-06T09:12:39.058Z,4.30
2022-12-06T09:15:10.729Z,4.30
2022-12-06T09:17:39.423Z,4.40
2022-12-06T09:20:10.144Z,4.40
2022-12-06T09:22:39.067Z,4.40
2022-12-06T09:25:08.311Z,4.40
2022-12-06T09:27:37.198Z,4.30
2022-12-06T09:30:09.049Z,4.40
2022-12-06T09:32:37.970Z,4.40
2022-12-06T09:35:12.292Z,4.40
2022-12-06T09:37:45.333Z,4.40
2022-12-06T09:40:21.280Z,4.30
2022-12-06T09:43:09.513Z,4.20
2022-12-06T09:46:05.540Z,4.20
2022-12-06T09:49:00.375Z,4.20
2022-12-06T09:51:44.339Z,4.30
2022-12-06T09:54:35.427Z,4.30
2022-12-06T09:57:09.415Z,4.20
2022-12-06T09:59:46.216Z,4.20
2022-12-06T10:02:34.388Z,4.30
2022-12-06T10:05:26.697Z,4.40
2022-12-06T10:08:04.162Z,4.30
2022-12-06T10:10:45.791Z,4.40
2022-12-06T10:13:26.088Z,4.30
2022-12-06T10:16:08.974Z,4.30
2022-12-06T10:18:57.458Z,4.40
2022-12-06T10:21:39.009Z,4.40
2022-12-06T10:24:20.225Z,4.40
2022-12-06T10:26:51.628Z,4.30
2022-12-06T10:29:28.882Z,4.40
2022-12-06T10:32:00.601Z,4.40
2022-12-06T10:34:49.013Z,4.40
2022-12-06T10:37:30.812Z,4.30
2022-12-06T10:40:04.647Z,4.30
2022-12-06T10:42:38.747Z,4.30
2022-12-06T10:45:30.771Z,4.30
2022-12-06T10:48:02.056Z,4.30
2022-12-06T10:50:36.130Z,4.30
2022-12-06T10:53:11.743Z,4.30
2022-12-06T10:55:45.579Z,4.30
2022-12-06T10:58:27.053Z,4.20
2022-12-06T11:00:59.961Z,4.20
2022-12-06T11:03:35.268Z,4.20
2022-12-06T11:06:12.115Z,4.10
2022-12-06T11:08:45.229Z,4.20
2022-12-06T11:11:17.395Z,4.20
2022-12-06T11:13:50.140Z,4.20
2022-12-06T11:16:23.169Z,4.20
2022-12-06T11:18:52.794Z,4.20
2022-12-06T11:21:29.129Z,4.20
2022-12-06T11:24:03.349Z,4.80
2022-12-06T11:26:39.282Z,4.20
2022-12-06T11:29:12.544Z,4.20
2022-12-06T11:31:46.191Z,4.20
2022-12-06T11:34:18.393Z,4.30
2022-12-06T11:36:56.644Z,4.30
2022-12-06T11:39:29.795Z,4.30
2022-12-06T11:42:02.333Z,4.30
2022-12-06T11:44:38.990Z,4.30
2022-12-06T11:47:08.743Z,4.30
2022-12-06T11:49:41.261Z,4.30
2022-12-06T11:52:15.909Z,4.30
2022-12-06T11:54:49.321Z,4.30
2022-12-06T11:57:24.062Z,4.20
2022-12-06T12:00:15.362Z,4.20
2022-12-06T12:02:45.208Z,4.10
2022-12-06T12:05:20.796Z,4.00
2022-12-06T12:07:55.177Z,4.00
2022-12-06T12:10:35.892Z,4.00
2022-12-06T12:13:38.488Z,4.00
2022-12-06T12:16:15.018Z,4.00
2022-12-06T12:18:52.170Z,3.90
2022-12-06T12:21:32.964Z,4.00
2022-12-06T12:24:03.543Z,4.10
2022-12-06T12:26:41.588Z,4.00
2022-12-06T12:29:20.057Z,4.00
2022-12-06T12:32:00.517Z,4.00
2022-12-06T12:34:30.922Z,4.00
2022-12-06T12:37:01.428Z,4.00
2022-12-06T12:39:35.585Z,3.90
2022-12-06T12:42:06.376Z,3.90
2022-12-06T12:44:39.314Z,4.00
2022-12-06T12:47:18.894Z,4.00
2022-12-06T12:50:02.561Z,4.00
2022-12-06T12:52:33.481Z,4.00
2022-12-06T12:55:16.956Z,4.00
2022-12-06T12:57:47.823Z,4.10
2022-12-06T13:00:19.146Z,4.10
2022-12-06T13:02:52.802Z,4.10
2022-12-06T13:05:33.231Z,4.10
2022-12-06T13:08:08.835Z,4.10
2022-12-06T13:10:43.665Z,4.10
2022-12-06T13:13:18.886Z,4.00
2022-12-06T13:15:50.475Z,4.00
2022-12-06T13:18:22.444Z,4.10
2022-12-06T13:20:54.048Z,4.00
2022-12-06T13:23:25.531Z,4.00
2022-12-06T13:26:03.441Z,4.00
2022-12-06T13:28:36.681Z,4.00
2022-12-06T13:31:11.704Z,4.00
2022-12-06T13:33:46.441Z,4.00
2022-12-06T13:36:17.110Z,4.00
2022-12-06T13:38:46.300Z,4.00
2022-12-06T13:41:38.637Z,4.00
2022-12-06T13:44:40.080Z,4.00
2022-12-06T13:47:42.290Z,3.90
2022-12-06T13:50:51.249Z,3.90
2022-12-06T13:53:20.521Z,3.90
2022-12-06T13:55:59.399Z,4.00
2022-12-06T13:58:53.161Z,3.90
2022-12-06T14:01:40.285Z,3.90
2022-12-06T14:04:39.025Z,3.90
2022-12-06T14:09:41.066Z,3.80
2022-12-06T14:12:18.934Z,3.90
2022-12-06T14:14:59.064Z,3.80
2022-12-06T14:18:00.694Z,3.80
2022-12-06T14:20:28.091Z,3.80
2022-12-06T14:22:57.955Z,3.80
2022-12-06T14:25:29.801Z,3.70
2022-12-06T14:28:05.026Z,3.80
2022-12-06T14:30:35.399Z,3.70
2022-12-06T14:33:19.658Z,3.80
2022-12-06T14:35:51.634Z,3.70
2022-12-06T14:38:24.299Z,3.80
2022-12-06T14:41:11.052Z,3.80
2022-12-06T14:43:40.864Z,3.70
2022-12-06T14:46:15.935Z,3.70
2022-12-06T14:49:02.823Z,3.70
2022-12-06T14:51:37.265Z,3.80
2022-12-06T14:54:19.040Z,3.70
2022-12-06T14:56:48.605Z,3.70
2022-12-06T14:59:46.127Z,3.70
2022-12-06T15:02:24.171Z,3.70
2022-12-06T15:04:53.728Z,4.60
2022-12-06T15:07:43.523Z,3.60
2022-12-06T15:10:22.933Z,3.50
2022-12-06T15:12:58.817Z,3.50
2022-12-06T15:15:39.926Z,3.50
2022-12-06T15:18:18.427Z,3.40
2022-12-06T15:20:48.946Z,3.50
2022-12-06T15:23:47.771Z,3.50
2022-12-06T15:26:17.079Z,3.50
2022-12-06T15:28:45.859Z,3.40
2022-12-06T15:31:19.963Z,3.50
2022-12-06T15:33:55.484Z,3.50
2022-12-06T15:36:25.957Z,3.50
2022-12-06T15:38:55.287Z,3.40
2022-12-06T15:41:27.829Z,3.40
2022-12-06T15:43:57.773Z,3.40
2022-12-06T15:46:29.325Z,3.40
2022-12-06T15:49:00.414Z,3.40
2022-12-06T15:51:30.262Z,3.40
2022-12-06T15:54:00.067Z,3.30
2022-12-06T15:56:32.084Z,3.30
2022-12-06T15:59:01.218Z,3.20
2022-12-06T16:01:34.644Z,3.30
2022-12-06T16:04:05.276Z,3.30
2022-12-06T16:06:34.959Z,3.40
2022-12-06T16:09:04.153Z,3.40
2022-12-06T16:11:33.180Z,3.30
2022-12-06T16:14:02.840Z,3.40
2022-12-06T16:16:31.795Z,3.30
2022-12-06T16:19:06.813Z,3.30
2022-12-06T16:21:51.452Z,3.30
2022-12-06T16:24:19.971Z,3.30
2022-12-06T16:26:49.614Z,3.30
2022-12-06T16:29:23.633Z,3.30
2022-12-06T16:31:53.164Z,3.30
2022-12-06T16:34:22.314Z,3.30
2022-12-06T16:36:58.153Z,3.20
2022-12-06T16:39:27.829Z,3.30
2022-12-06T16:41:59.317Z,3.30
2022-12-06T16:44:31.233Z,3.20
2022-12-06T16:47:00.232Z,3.10
2022-12-06T16:49:49.479Z,3.20
2022-12-06T16:52:19.610Z,3.10
2022-12-06T16:54:48.350Z,3.10
2022-12-06T16:57:19.508Z,3.20
2022-12-06T16:59:50.883Z,3.20
2022-12-06T17:02:28.193Z,3.10
2022-12-06T17:04:57.598Z,3.10
2022-12-06T17:07:28.809Z,3.10
2022-12-06T17:09:57.724Z,3.10
2022-12-06T17:12:26.422Z,3.10
2022-12-06T17:14:55.141Z,3.10
2022-12-06T17:17:26.259Z,3.00
2022-12-06T17:19:56.392Z,3.10
2022-12-06T17:22:25.230Z,3.10
2022-12-06T17:24:55.477Z,3.10
2022-12-06T17:27:24.611Z,3.10
2022-12-06T17:29:53.581Z,3.10
2022-12-06T17:32:23.698Z,3.20
2022-12-06T17:34:55.258Z,3.10
2022-12-06T17:37:24.051Z,3.10
2022-12-06T17:39:54.120Z,3.00
2022-12-06T17:42:40.637Z,3.00
2022-12-06T17:45:09.882Z,3.00
2022-12-06T17:47:38.486Z,3.00
2022-12-06T17:50:13.853Z,3.00
2022-12-06T17:52:42.902Z,3.00
2022-12-06T17:55:14.602Z,3.00
2022-12-06T17:57:43.716Z,2.90
2022-12-06T18:00:13.291Z,2.90
2022-12-06T18:02:42.181Z,2.90
2022-12-06T18:05:14.261Z,2.90
2022-12-06T18:07:45.544Z,2.90
2022-12-06T18:10:17.256Z,2.90
2022-12-06T18:12:46.121Z,2.90
2022-12-06T18:15:39.364Z,2.90
2022-12-06T18:18:08.266Z,2.90
2022-12-06T18:20:37.355Z,2.90
2022-12-06T18:23:09.117Z,2.90
2022-12-06T18:25:40.922Z,2.90
2022-12-06T18:28:10.156Z,2.90
2022-12-06T18:30:39.066Z,2.90
2022-12-06T18:33:07.784Z,2.90
2022-12-06T18:35:37.224Z,3.00
2022-12-06T18:38:06.122Z,2.90
2022-12-06T18:40:35.019Z,2.90
2022-12-06T18:43:07.312Z,2.90
2022-12-06T18:45:36.052Z,3.60
2022-12-06T18:48:05.805Z,3.50
2022-12-06T18:50:34.646Z,2.90
2022-12-06T18:53:03.465Z,2.90
2022-12-06T18:55:38.418Z,2.90
2022-12-06T18:58:11.145Z,2.90
2022-12-06T19:00:47.271Z,2.90
2022-12-06T19:03:18.303Z,3.00
2022-12-06T19:06:04.939Z,2.80
2022-12-06T19:08:34.075Z,3.00
2022-12-06T19:11:03.001Z,2.80
2022-12-06T19:13:35.594Z,2.90
2022-12-06T19:16:04.953Z,2.80
2022-12-06T19:18:33.990Z,2.80
2022-12-06T19:21:03.046Z,2.80
2022-12-06T19:23:31.923Z,2.80
2022-12-06T19:26:01.930Z,2.70
2022-12-06T19:28:33.538Z,2.70
2022-12-06T19:31:05.329Z,2.80
2022-12-06T19:33:37.132Z,2.80
2022-12-06T19:36:08.971Z,2.80
2022-12-06T19:38:37.867Z,2.70
2022-12-06T19:41:08.951Z,2.80
2022-12-06T19:43:59.793Z,2.70
2022-12-06T19:46:30.676Z,2.80
2022-12-06T19:49:01.029Z,2.80
2022-12-06T19:51:30.094Z,2.80
2022-12-06T19:53:59.136Z,2.80
2022-12-06T19:56:28.050Z,2.80
2022-12-06T19:59:05.258Z,2.70
2022-12-06T20:01:34.054Z,2.70
2022-12-06T20:04:04.727Z,2.70
2022-12-06T20:06:33.276Z,2.70
2022-12-06T20:09:02.485Z,2.60
2022-12-06T20:11:45.096Z,2.70
2022-12-06T20:14:17.258Z,2.60
2022-12-06T20:16:46.146Z,2.60
2022-12-06T20:19:16.658Z,2.70
2022-12-06T20:21:46.553Z,2.50
2022-12-06T20:24:20.319Z,2.50
2022-12-06T20:26:52.431Z,2.40
2022-12-06T20:29:23.470Z,2.30
2022-12-06T20:31:57.934Z,2.30
2022-12-06T20:34:28.919Z,2.30
2022-12-06T20:36:57.815Z,2.30
2022-12-06T20:39:29.498Z,2.30
2022-12-06T20:41:59.540Z,2.20
2022-12-06T20:44:29.726Z,2.20
2022-12-06T20:47:04.583Z,2.10
2022-12-06T20:49:36.039Z,2.20
2022-12-06T20:52:06.545Z,2.20
2022-12-06T20:54:44.510Z,2.30
2022-12-06T20:57:13.227Z,2.30
2022-12-06T20:59:48.868Z,2.20
2022-12-06T21:02:17.701Z,2.20
2022-12-06T21:04:48.966Z,2.20
2022-12-06T21:07:17.514Z,2.20
2022-12-06T21:09:48.474Z,2.60
2022-12-06T21:12:17.199Z,2.20
2022-12-06T21:14:45.858Z,2.20
2022-12-06T21:17:15.869Z,2.20
2022-12-06T21:19:44.515Z,2.20
2022-12-06T21:22:13.099Z,2.20
2022-12-06T21:24:41.694Z,2.20
2022-12-06T21:27:10.294Z,2.20
2022-12-06T21:29:42.637Z,2.20
2022-12-06T21:32:11.336Z,2.60
2022-12-06T21:34:46.253Z,2.30
2022-12-06T21:37:15.392Z,2.20
2022-12-06T21:39:46.409Z,2.30
2022-12-06T21:42:15.841Z,2.30
2022-12-06T21:44:44.487Z,2.30
2022-12-06T21:47:13.255Z,2.40
2022-12-06T21:49:43.309Z,2.30
2022-12-06T21:52:12.170Z,2.50
2022-12-06T21:54:41.159Z,2.40
2022-12-06T21:57:09.681Z,2.50
2022-12-06T21:59:43.205Z,2.50
2022-12-06T22:02:12.252Z,2.50
2022-12-06T22:04:41.420Z,2.60
2022-12-06T22:07:11.738Z,2.50
2022-12-06T22:09:40.766Z,2.50
2022-12-06T22:12:09.945Z,2.60
2022-12-06T22:14:38.845Z,2.50
2022-12-06T22:17:09.598Z,2.60
2022-12-06T22:19:38.792Z,2.50
2022-12-06T22:22:07.903Z,2.50
2022-12-06T22:24:38.840Z,2.50
2022-12-06T22:27:07.810Z,2.50
2022-12-06T22:29:36.840Z,2.50
2022-12-06T22:32:05.720Z,2.50
2022-12-06T22:34:34.884Z,2.50
2022-12-06T22:37:03.765Z,2.50
2022-12-06T22:39:32.581Z,2.50
2022-12-06T22:42:02.985Z,2.50
2022-12-06T22:44:31.639Z,2.50
2022-12-06T22:47:00.674Z,2.50
2022-12-06T22:49:36.218Z,2.50
2022-12-06T22:52:05.246Z,2.50
2022-12-06T22:54:34.011Z,2.50
2022-12-06T22:57:04.474Z,2.50
2022-12-06T22:59:33.427Z,2.50
2022-12-06T23:02:05.621Z,2.50
2022-12-06T23:04:34.604Z,2.50
2022-12-06T23:07:04.039Z,2.50
2022-12-06T23:09:33.471Z,2.50
2022-12-06T23:12:07.648Z,2.50
2022-12-06T23:14:39.398Z,2.50
2022-12-06T23:17:08.935Z,2.50
2022-12-06T23:19:37.497Z,2.50
2022-12-06T23:22:06.368Z,2.50
2022-12-06T23:24:35.319Z,2.50
2022-12-06T23:27:11.948Z,2.50
2022-12-06T23:29:40.907Z,2.50
2022-12-06T23:32:10.970Z,2.50
2022-12-06T23:34:40.626Z,2.40
2022-12-06T23:37:10.271Z,2.40
2022-12-06T23:39:39.487Z,2.40
2022-12-06T23:42:11.040Z,2.40
2022-12-06T23:44:40.251Z,2.40
2022-12-06T23:47:09.536Z,2.40
2022-12-06T23:49:38.437Z,2.40
2022-12-06T23:52:07.214Z,2.40
2022-12-06T23:54:35.922Z,2.40
2022-12-06T23:57:05.015Z,2.40
2022-12-06T23:59:35.275Z,2.50
